Terminal Aerodrome Forecast
Issued by NWS

Home | Current Version | Previous Version | Text Only | Print | Product List | Glossary On
Versions: 1 2 3 4 5 6 7 8 9 10 11 12 13 14
312
FTUS42 KMLB 291137
TAFTIX
TAF
KTIX 291137Z 2912/3012 32004KT P6SM BKN015
     FM291300 34005KT P6SM SCT025
     FM291800 10010KT P6SM SCT045
     FM300000 12007KT P6SM FEW040
     FM300300 20004KT P6SM SCT250=

USA.gov is the U.S. government's official web portal to all federal, state and local government web resources and services.